Time;durP1;ratioP1;P1;durP2;ratioP2;P2;SDS_P1;SDS_P2;PMS_P1;PMS_P2;Temp;Humidity;BMP_temperature;BMP_pressure;BME280_temperature;BME280_humidity;BME280_pressure;Samples;Min_cycle;Max_cycle;Signal;HPM_P1;HPM_P2
2021/01/27 00:01:42;;;;;;;6.80;3.78;;;3.10;99.90;;;;;;5100965;28;20219;-88
2021/01/27 00:04:09;;;;;;;8.55;3.83;;;3.30;99.90;;;;;;5097247;28;20208;-87
2021/01/27 00:06:36;;;;;;;8.52;3.92;;;3.10;99.90;;;;;;5090639;28;20221;-87
2021/01/27 00:09:04;;;;;;;10.38;3.70;;;3.10;99.90;;;;;;5083650;28;20201;-85
2021/01/27 00:11:31;;;;;;;6.55;4.22;;;3.10;99.90;;;;;;5098576;28;20209;-87
2021/01/27 00:13:57;;;;;;;6.75;4.03;;;3.10;99.90;;;;;;5097260;28;20588;-86
2021/01/27 00:16:24;;;;;;;6.53;4.10;;;3.00;99.90;;;;;;5097603;28;20232;-87
2021/01/27 00:18:50;;;;;;;7.32;3.80;;;3.10;99.90;;;;;;5097369;28;20208;-86
2021/01/27 00:21:17;;;;;;;9.52;3.95;;;3.30;99.90;;;;;;5099502;28;20217;-86
2021/01/27 00:23:44;;;;;;;8.27;4.68;;;3.50;99.90;;;;;;5097276;28;20205;-84
2021/01/27 00:26:11;;;;;;;6.22;4.25;;;3.30;99.90;;;;;;5097076;28;20229;-85
2021/01/27 00:28:38;;;;;;;7.40;4.72;;;3.20;99.90;;;;;;5095223;28;20224;-84
2021/01/27 00:31:04;;;;;;;7.03;4.53;;;3.30;99.90;;;;;;5081898;28;20204;-85
2021/01/27 00:33:31;;;;;;;8.70;4.75;;;3.20;99.90;;;;;;5094095;28;20206;-85
2021/01/27 00:35:57;;;;;;;8.55;4.10;;;3.30;99.90;;;;;;5088075;28;20228;-86
2021/01/27 00:38:26;;;;;;;9.48;4.60;;;3.10;99.90;;;;;;5096531;28;20202;-87
2021/01/27 00:40:53;;;;;;;8.25;4.47;;;3.20;99.90;;;;;;5096231;28;20647;-87
2021/01/27 00:43:21;;;;;;;8.45;4.47;;;3.40;99.90;;;;;;5079950;28;20204;-85
2021/01/27 00:45:48;;;;;;;10.10;4.53;;;3.40;99.90;;;;;;5090740;28;20236;-86
2021/01/27 00:48:16;;;;;;;7.05;4.30;;;3.40;99.90;;;;;;5080464;28;20225;-86
2021/01/27 00:50:42;;;;;;;7.05;4.18;;;3.30;99.90;;;;;;5079030;28;20206;-86
2021/01/27 00:53:10;;;;;;;7.22;4.50;;;3.30;99.90;;;;;;5098700;28;20212;-86
2021/01/27 00:55:37;;;;;;;7.90;4.53;;;3.50;99.90;;;;;;5100425;28;20759;-86
2021/01/27 00:58:03;;;;;;;6.45;4.13;;;3.40;99.90;;;;;;5114718;22;20226;-80
2021/01/27 01:00:32;;;;;;;10.15;5.00;;;3.30;99.90;;;;;;5073597;28;20202;-81
2021/01/27 01:02:59;;;;;;;8.80;5.30;;;3.30;99.90;;;;;;5076404;28;20620;-81
2021/01/27 01:05:29;;;;;;;7.00;4.28;;;3.30;99.90;;;;;;5076965;28;20205;-81
2021/01/27 01:07:55;;;;;;;8.80;5.20;;;3.10;99.90;;;;;;5076414;28;20228;-81
2021/01/27 01:10:23;;;;;;;9.38;5.47;;;3.20;99.90;;;;;;5082614;28;20208;-80
2021/01/27 01:12:50;;;;;;;11.55;6.22;;;3.40;99.90;;;;;;5082647;28;20221;-81
2021/01/27 01:15:17;;;;;;;7.25;5.10;;;3.30;99.90;;;;;;5081865;28;20283;-80
2021/01/27 01:17:44;;;;;;;9.73;5.32;;;3.30;99.90;;;;;;5080143;28;20214;-81
2021/01/27 01:20:14;;;;;;;10.30;5.25;;;3.20;99.90;;;;;;5074919;28;20225;-81
2021/01/27 01:22:43;;;;;;;10.05;4.60;;;3.50;99.90;;;;;;5074113;28;20210;-81
2021/01/27 01:25:10;;;;;;;9.65;5.32;;;3.30;99.90;;;;;;5076733;28;20206;-80
2021/01/27 01:27:37;;;;;;;8.98;5.30;;;3.30;99.90;;;;;;5066918;28;20280;-82
2021/01/27 01:30:08;;;;;;;9.07;5.13;;;3.30;99.90;;;;;;5073477;28;20201;-81
2021/01/27 01:32:35;;;;;;;7.38;5.10;;;3.30;99.90;;;;;;5056229;28;20215;-80
2021/01/27 01:35:03;;;;;;;9.30;5.22;;;3.50;99.90;;;;;;5063357;28;20325;-81
2021/01/27 01:37:29;;;;;;;8.57;5.70;;;3.30;99.90;;;;;;5071780;28;20214;-80
2021/01/27 01:39:56;;;;;;;9.90;5.35;;;3.30;99.90;;;;;;5085973;28;20214;-80
2021/01/27 01:42:22;;;;;;;10.32;5.57;;;3.30;99.90;;;;;;5073499;28;20202;-81
2021/01/27 01:44:49;;;;;;;9.88;4.97;;;3.30;99.90;;;;;;5061719;28;20205;-79
2021/01/27 01:47:16;;;;;;;8.70;5.35;;;3.30;99.90;;;;;;5082411;28;20206;-79
2021/01/27 01:49:43;;;;;;;8.98;5.55;;;3.30;99.90;;;;;;5084233;28;20744;-80
2021/01/27 01:52:10;;;;;;;10.60;5.70;;;3.20;99.90;;;;;;5082713;28;20194;-80
2021/01/27 01:54:41;;;;;;;10.20;5.80;;;3.20;99.90;;;;;;5081027;28;20218;-81
2021/01/27 01:57:12;;;;;;;8.68;5.00;;;3.30;99.90;;;;;;5085397;28;20198;-79
2021/01/27 01:59:42;;;;;;;7.20;4.57;;;3.30;99.90;;;;;;5085554;28;20256;-79
2021/01/27 02:02:10;;;;;;;7.32;5.10;;;3.30;99.90;;;;;;5080997;28;20227;-82
2021/01/27 02:04:44;;;;;;;7.70;4.88;;;3.30;99.90;;;;;;5084102;28;20259;-80
2021/01/27 02:07:11;;;;;;;7.82;5.97;;;3.30;99.90;;;;;;5082685;28;20190;-80
2021/01/27 02:09:38;;;;;;;7.30;4.70;;;3.40;99.90;;;;;;5063962;28;20230;-80
2021/01/27 02:12:30;;;;;;;9.07;5.68;;;3.50;99.90;;;;;;5063804;28;20263;-81
2021/01/27 02:15:16;;;;;;;9.02;5.18;;;3.20;99.90;;;;;;5058317;28;20211;-81
2021/01/27 02:17:49;;;;;;;7.90;4.75;;;3.40;99.90;;;;;;5059384;28;20187;-81
2021/01/27 02:21:07;;;;;;;9.05;5.55;;;3.40;99.90;;;;;;5059463;28;20215;-80
2021/01/27 02:24:20;;;;;;;9.95;5.15;;;3.40;99.90;;;;;;5059686;28;20235;-80
2021/01/27 02:27:03;;;;;;;9.07;5.28;;;3.40;99.90;;;;;;5059362;28;20213;-81
2021/01/27 02:30:11;;;;;;;9.20;4.72;;;3.30;99.90;;;;;;5074115;28;20217;-81
2021/01/27 02:33:06;;;;;;;12.20;5.40;;;3.20;99.90;;;;;;5072595;28;20251;-81
2021/01/27 02:35:38;;;;;;;8.25;5.00;;;3.20;99.90;;;;;;5077106;28;20221;-80
2021/01/27 02:38:10;;;;;;;7.15;4.65;;;3.40;99.90;;;;;;5077390;28;20218;-80
2021/01/27 02:40:40;;;;;;;12.65;5.75;;;3.10;99.90;;;;;;5076871;28;20186;-80
2021/01/27 02:43:12;;;;;;;10.68;5.30;;;3.40;99.90;;;;;;5075735;28;20196;-80
2021/01/27 02:45:44;;;;;;;9.15;5.47;;;3.20;99.90;;;;;;5086974;28;20201;-79
2021/01/27 02:48:15;;;;;;;10.05;5.30;;;3.10;99.90;;;;;;5088313;28;20234;-82
2021/01/27 02:50:48;;;;;;;9.27;4.97;;;3.10;99.90;;;;;;5076840;28;20557;-83
2021/01/27 02:53:18;;;;;;;8.32;5.07;;;3.10;99.90;;;;;;5076682;28;20200;-82
2021/01/27 02:55:52;;;;;;;6.88;4.82;;;3.30;99.90;;;;;;5079469;28;20213;-80
2021/01/27 02:58:23;;;;;;;9.55;5.25;;;3.40;99.90;;;;;;5082674;28;20263;-83
2021/01/27 03:00:55;;;;;;;9.05;5.80;;;3.30;99.90;;;;;;5082271;28;20205;-79
2021/01/27 03:03:26;;;;;;;7.38;4.30;;;3.20;99.90;;;;;;5078574;28;20215;-82
2021/01/27 03:05:58;;;;;;;8.23;5.63;;;3.10;99.90;;;;;;5075044;28;20186;-82
2021/01/27 03:08:27;;;;;;;10.32;5.30;;;3.10;99.90;;;;;;5075337;28;20226;-82
2021/01/27 03:11:03;;;;;;;8.57;5.45;;;3.00;99.90;;;;;;5076666;28;20216;-81
2021/01/27 03:13:30;;;;;;;7.70;4.70;;;3.10;99.90;;;;;;5084759;28;20253;-82
2021/01/27 03:15:59;;;;;;;6.93;5.20;;;3.20;99.90;;;;;;5083662;28;20271;-81
2021/01/27 03:18:31;;;;;;;8.23;4.95;;;3.20;99.90;;;;;;5082376;28;20218;-82
2021/01/27 03:21:04;;;;;;;6.57;4.38;;;3.20;99.90;;;;;;5081915;28;20204;-82
2021/01/27 03:23:37;;;;;;;7.30;4.85;;;3.20;99.90;;;;;;5068558;28;20195;-81
2021/01/27 03:26:12;;;;;;;8.30;5.22;;;3.20;99.90;;;;;;5066390;28;20194;-82
2021/01/27 03:28:44;;;;;;;7.57;5.30;;;3.10;99.90;;;;;;5081735;28;20221;-81
2021/01/27 03:31:11;;;;;;;10.63;5.20;;;3.00;99.90;;;;;;5083162;28;20230;-80
2021/01/27 03:33:44;;;;;;;9.77;5.32;;;3.10;99.90;;;;;;5067766;28;20202;-81
2021/01/27 03:36:14;;;;;;;10.43;4.82;;;3.10;99.90;;;;;;5061457;28;20221;-81
2021/01/27 03:38:44;;;;;;;8.98;5.10;;;3.10;99.90;;;;;;5061142;28;20223;-81
2021/01/27 03:41:16;;;;;;;8.65;5.13;;;3.20;99.90;;;;;;5063726;28;20209;-81
2021/01/27 03:43:48;;;;;;;8.52;5.07;;;3.20;99.90;;;;;;5074030;28;20258;-81
2021/01/27 03:46:21;;;;;;;6.95;4.43;;;3.30;99.90;;;;;;5082730;28;20198;-80
2021/01/27 03:48:54;;;;;;;9.25;5.53;;;3.40;99.90;;;;;;5081341;28;20222;-82
2021/01/27 03:51:23;;;;;;;8.90;4.40;;;3.40;99.90;;;;;;5079790;28;20202;-82
2021/01/27 03:53:52;;;;;;;9.27;4.63;;;3.40;99.90;;;;;;5079610;28;20209;-81
2021/01/27 03:56:26;;;;;;;8.15;4.60;;;3.20;99.90;;;;;;5077086;28;20285;-80
2021/01/27 03:58:53;;;;;;;7.78;4.43;;;3.50;99.90;;;;;;5071439;28;20767;-81
2021/01/27 04:01:22;;;;;;;8.02;4.95;;;3.40;99.90;;;;;;5074723;28;20202;-81
2021/01/27 04:03:52;;;;;;;11.95;5.03;;;3.40;99.90;;;;;;5073836;28;20210;-81
2021/01/27 04:06:18;;;;;;;8.15;4.35;;;3.20;99.90;;;;;;5094176;28;20715;-80
2021/01/27 04:08:46;;;;;;;8.73;4.72;;;3.40;99.90;;;;;;5098228;28;20221;-80
2021/01/27 04:11:13;;;;;;;6.93;4.63;;;3.40;99.90;;;;;;5096059;28;20201;-82
2021/01/27 04:13:39;;;;;;;8.07;4.85;;;3.40;99.90;;;;;;5086630;28;20208;-82
2021/01/27 04:16:06;;;;;;;9.02;4.38;;;3.60;99.90;;;;;;5085480;28;20684;-82
2021/01/27 04:18:33;;;;;;;8.23;5.07;;;3.70;99.90;;;;;;5082461;28;20230;-82
2021/01/27 04:21:00;;;;;;;7.03;4.57;;;3.30;99.90;;;;;;5084497;28;20201;-82
2021/01/27 04:23:26;;;;;;;6.13;4.00;;;3.40;99.90;;;;;;5070491;28;20219;-82
2021/01/27 04:25:54;;;;;;;7.90;4.10;;;3.30;99.90;;;;;;5083736;28;20262;-81
2021/01/27 04:28:20;;;;;;;6.47;4.25;;;3.10;99.90;;;;;;5082752;28;20228;-81
2021/01/27 04:30:47;;;;;;;6.90;4.45;;;3.20;99.90;;;;;;5083011;28;20250;-81
2021/01/27 04:33:13;;;;;;;6.45;4.35;;;3.20;99.90;;;;;;5082777;28;20210;-81
2021/01/27 04:35:40;;;;;;;8.20;3.90;;;3.20;99.90;;;;;;5083805;28;20225;-80
2021/01/27 04:38:08;;;;;;;6.25;3.65;;;3.30;99.90;;;;;;5085733;28;20232;-80
2021/01/27 04:40:37;;;;;;;6.40;4.07;;;3.20;99.90;;;;;;5084481;28;20205;-81
2021/01/27 04:43:07;;;;;;;5.38;3.20;;;3.20;99.90;;;;;;5084313;28;20209;-82
2021/01/27 04:45:34;;;;;;;9.20;3.97;;;3.10;99.90;;;;;;5075575;28;20199;-79
2021/01/27 04:48:09;;;;;;;6.13;3.60;;;3.30;99.90;;;;;;5063720;28;20229;-80
2021/01/27 04:50:42;;;;;;;6.47;3.90;;;3.40;99.90;;;;;;5063230;28;20187;-81
2021/01/27 04:53:27;;;;;;;6.75;4.13;;;3.30;99.90;;;;;;5064032;28;20216;-81
2021/01/27 04:56:11;;;;;;;7.45;3.63;;;3.30;99.90;;;;;;5073367;28;20275;-81
2021/01/27 04:58:46;;;;;;;8.80;4.32;;;3.50;99.90;;;;;;5083345;28;20602;-82
2021/01/27 05:01:52;;;;;;;5.97;3.97;;;3.60;99.90;;;;;;5083361;28;20220;-82
2021/01/27 05:04:35;;;;;;;11.50;5.38;;;3.30;99.90;;;;;;5071996;28;20194;-82
2021/01/27 05:07:07;;;;;;;8.13;4.20;;;3.30;99.90;;;;;;5063141;28;20214;-81
2021/01/27 05:09:39;;;;;;;6.70;3.92;;;3.50;99.90;;;;;;5064452;28;20236;-81
2021/01/27 05:12:09;;;;;;;5.35;3.42;;;3.60;99.90;;;;;;5065276;28;20199;-82
2021/01/27 05:14:37;;;;;;;7.28;3.58;;;3.30;99.90;;;;;;5077120;28;20711;-82
2021/01/27 05:17:09;;;;;;;7.35;3.78;;;3.60;99.90;;;;;;5082656;28;20237;-82
2021/01/27 05:19:36;;;;;;;4.97;3.20;;;3.60;99.90;;;;;;5084375;28;20221;-80
2021/01/27 05:22:04;;;;;;;5.35;4.03;;;3.60;99.90;;;;;;5085100;28;20690;-81
2021/01/27 05:24:30;;;;;;;6.85;3.72;;;3.40;99.90;;;;;;5086718;28;20209;-82
2021/01/27 05:27:00;;;;;;;7.15;3.50;;;3.50;99.90;;;;;;5082188;28;20202;-82
2021/01/27 05:29:32;;;;;;;6.80;3.55;;;3.40;99.90;;;;;;5085405;28;20289;-81
2021/01/27 05:32:06;;;;;;;6.32;3.30;;;3.30;99.90;;;;;;5083664;28;20206;-81
2021/01/27 05:34:36;;;;;;;4.90;3.45;;;3.40;99.90;;;;;;5082359;28;20248;-81
2021/01/27 05:37:04;;;;;;;6.80;3.20;;;3.40;99.90;;;;;;5069825;28;20206;-81
2021/01/27 05:39:31;;;;;;;6.50;3.20;;;3.40;99.90;;;;;;5082595;28;20234;-80
2021/01/27 05:42:21;;;;;;;5.93;3.47;;;3.40;99.90;;;;;;5062857;28;20214;-81
2021/01/27 05:44:50;;;;;;;5.60;3.33;;;3.30;99.90;;;;;;5062471;28;20218;-82
2021/01/27 05:47:24;;;;;;;7.88;3.80;;;3.50;99.90;;;;;;5059270;28;20210;-82
2021/01/27 05:49:50;;;;;;;8.20;3.53;;;3.40;99.90;;;;;;5058819;28;20708;-81
2021/01/27 05:52:20;;;;;;;5.90;3.63;;;3.40;99.90;;;;;;5056531;28;20210;-81
2021/01/27 05:54:46;;;;;;;7.15;3.80;;;3.50;99.90;;;;;;5055554;28;20218;-81
2021/01/27 05:57:19;;;;;;;6.32;3.20;;;3.60;99.90;;;;;;5056334;28;20260;-82
2021/01/27 05:59:46;;;;;;;5.25;3.40;;;3.50;99.90;;;;;;5056510;28;20234;-81
2021/01/27 06:02:14;;;;;;;7.35;3.72;;;3.60;99.90;;;;;;5065562;28;20233;-80
2021/01/27 06:04:51;;;;;;;10.15;3.50;;;3.50;99.90;;;;;;5068780;28;20214;-80
2021/01/27 06:07:24;;;;;;;5.90;3.22;;;3.50;99.90;;;;;;5061344;28;20263;-82
2021/01/27 06:09:54;;;;;;;5.82;3.35;;;3.50;99.90;;;;;;5061056;28;20364;-81
2021/01/27 06:12:29;;;;;;;8.70;3.80;;;3.60;99.90;;;;;;5067800;28;20206;-80
2021/01/27 06:15:15;;;;;;;8.55;3.47;;;3.40;99.90;;;;;;5084938;28;20221;-81
2021/01/27 06:17:45;;;;;;;5.03;3.30;;;3.40;99.90;;;;;;5080259;28;20285;-80
2021/01/27 06:20:29;;;;;;;7.10;3.63;;;3.60;99.90;;;;;;5075280;28;20214;-82
2021/01/27 06:23:34;;;;;;;4.82;3.15;;;3.40;99.90;;;;;;5074755;28;20321;-82
2021/01/27 06:26:31;;;;;;;5.45;3.13;;;3.50;99.90;;;;;;5066826;28;20213;-80
2021/01/27 06:29:23;;;;;;;5.35;2.65;;;3.20;99.90;;;;;;5088055;28;20232;-81
2021/01/27 06:32:21;;;;;;;4.63;2.83;;;3.40;99.90;;;;;;5076238;28;20212;-82
2021/01/27 06:35:08;;;;;;;10.88;4.15;;;3.60;99.90;;;;;;5074844;28;20268;-81
2021/01/27 06:37:54;;;;;;;5.18;3.25;;;3.40;99.90;;;;;;5075792;28;20561;-81
2021/01/27 06:40:32;;;;;;;7.80;3.22;;;3.30;99.90;;;;;;5079431;28;20664;-81
2021/01/27 06:43:54;;;;;;;8.02;3.22;;;3.50;99.90;;;;;;5082979;28;20202;-80
2021/01/27 06:46:50;;;;;;;6.95;3.22;;;3.50;99.90;;;;;;5087282;28;20209;-78
2021/01/27 06:49:43;;;;;;;6.05;3.42;;;3.60;99.90;;;;;;5082920;28;20265;-82
2021/01/27 06:52:42;;;;;;;8.50;3.60;;;3.60;99.90;;;;;;5083406;28;20186;-81
2021/01/27 06:55:18;;;;;;;8.70;3.03;;;3.60;99.90;;;;;;5082464;28;20235;-82
2021/01/27 06:58:07;;;;;;;7.70;3.38;;;3.50;99.90;;;;;;5081885;28;20343;-82
2021/01/27 07:00:41;;;;;;;5.35;3.05;;;3.50;99.90;;;;;;5082671;28;20319;-81
2021/01/27 07:04:01;;;;;;;5.00;2.90;;;3.50;99.90;;;;;;5082116;28;20185;-82
2021/01/27 07:07:10;;;;;;;7.22;3.28;;;3.60;99.90;;;;;;4981659;28;20197;-82
2021/01/27 07:10:09;;;;;;;7.15;3.10;;;3.40;99.90;;;;;;5082738;28;20222;-82
2021/01/27 07:12:41;;;;;;;4.63;3.03;;;3.60;99.90;;;;;;5049967;28;20202;-83
2021/01/27 07:15:38;;;;;;;4.97;3.00;;;3.40;99.90;;;;;;5080217;28;20268;-82
2021/01/27 07:18:56;;;;;;;7.32;3.30;;;3.60;99.90;;;;;;5065515;28;20302;-82
2021/01/27 07:21:28;;;;;;;8.82;3.92;;;3.40;99.90;;;;;;5020853;28;20600;-82
2021/01/27 07:24:01;;;;;;;8.90;3.72;;;3.50;99.90;;;;;;5067308;28;20236;-80
2021/01/27 07:26:35;;;;;;;6.38;3.53;;;3.60;99.90;;;;;;5076298;28;20198;-81
2021/01/27 07:29:07;;;;;;;6.82;3.58;;;3.60;99.90;;;;;;5076186;28;20263;-81
2021/01/27 07:31:39;;;;;;;11.18;3.80;;;3.60;99.90;;;;;;5078436;28;20469;-81
2021/01/27 07:34:13;;;;;;;6.47;3.50;;;3.80;99.90;;;;;;5079342;28;20210;-80
2021/01/27 07:36:57;;;;;;;7.75;3.05;;;3.70;99.90;;;;;;5080716;28;20722;-81
2021/01/27 07:39:29;;;;;;;8.15;3.88;;;3.80;99.90;;;;;;5079098;28;20614;-81
2021/01/27 07:42:11;;;;;;;8.13;3.55;;;3.90;99.90;;;;;;5083427;28;20274;-82
2021/01/27 07:44:44;;;;;;;5.65;2.90;;;3.90;99.90;;;;;;5089510;28;20186;-81
2021/01/27 07:47:23;;;;;;;7.70;3.20;;;3.90;99.90;;;;;;5088109;28;20197;-82
2021/01/27 07:49:56;;;;;;;7.07;3.72;;;3.80;99.90;;;;;;5066522;28;20238;-80
2021/01/27 07:52:27;;;;;;;4.85;3.05;;;3.80;99.90;;;;;;5056205;28;20224;-80
2021/01/27 07:55:03;;;;;;;6.50;3.47;;;4.00;99.90;;;;;;5057955;28;20211;-80
2021/01/27 07:57:55;;;;;;;6.22;2.83;;;3.70;99.90;;;;;;5058993;28;20194;-79
2021/01/27 08:00:29;;;;;;;5.43;2.97;;;3.70;99.90;;;;;;5078623;28;20220;-80
2021/01/27 08:03:20;;;;;;;6.97;3.50;;;3.80;99.90;;;;;;5082010;28;20194;-82
2021/01/27 08:05:49;;;;;;;5.30;2.92;;;3.70;99.90;;;;;;5070264;28;20548;-81
2021/01/27 08:08:21;;;;;;;5.63;2.92;;;3.70;99.90;;;;;;5074555;28;20222;-81
2021/01/27 08:10:49;;;;;;;5.55;2.75;;;3.60;99.90;;;;;;5078234;28;20672;-81
2021/01/27 08:13:34;;;;;;;6.43;3.60;;;3.50;99.90;;;;;;5085196;28;20205;-78
2021/01/27 08:16:26;;;;;;;5.47;2.63;;;3.70;99.90;;;;;;5079869;28;20237;-78
2021/01/27 08:19:28;;;;;;;6.38;2.60;;;3.60;99.90;;;;;;5073965;28;20218;-78
2021/01/27 08:22:01;;;;;;;6.55;2.90;;;3.70;99.90;;;;;;5084705;28;20220;-79
2021/01/27 08:24:53;;;;;;;4.70;2.80;;;3.70;99.90;;;;;;5085627;28;20202;-83
2021/01/27 08:27:41;;;;;;;8.23;2.80;;;3.60;99.90;;;;;;5089510;28;20209;-81
2021/01/27 08:30:26;;;;;;;7.32;4.95;;;3.50;99.90;;;;;;5084366;28;20253;-81
2021/01/27 08:33:43;;;;;;;5.40;3.30;;;3.60;99.90;;;;;;5080981;28;20208;-82
2021/01/27 08:36:14;;;;;;;6.25;3.30;;;3.60;99.90;;;;;;5081681;28;20865;-81
2021/01/27 08:38:44;;;;;;;7.55;3.30;;;3.40;99.90;;;;;;5071804;28;20249;-80
2021/01/27 08:41:40;;;;;;;5.28;3.05;;;3.40;99.90;;;;;;5077946;28;20275;-81
2021/01/27 08:44:10;;;;;;;7.25;3.60;;;3.40;99.90;;;;;;5066287;28;20194;-79
2021/01/27 08:46:46;;;;;;;5.43;3.35;;;3.30;99.90;;;;;;5079113;28;20228;-80
2021/01/27 08:49:46;;;;;;;6.93;3.95;;;3.50;99.90;;;;;;5087804;28;20225;-81
2021/01/27 08:52:32;;;;;;;6.85;3.50;;;3.40;99.90;;;;;;5079403;28;20206;-81
2021/01/27 08:54:59;;;;;;;5.90;2.92;;;3.40;99.90;;;;;;5086069;28;20217;-81
2021/01/27 08:57:29;;;;;;;5.70;2.65;;;3.30;99.90;;;;;;5090377;28;20206;-80
2021/01/27 09:00:03;;;;;;;9.10;3.60;;;3.60;99.90;;;;;;5082574;28;20716;-80
2021/01/27 09:02:49;;;;;;;4.97;2.92;;;3.30;99.90;;;;;;5082848;28;20259;-79
2021/01/27 09:05:37;;;;;;;5.57;3.28;;;3.50;99.90;;;;;;5081491;28;20218;-83
2021/01/27 09:08:25;;;;;;;5.82;3.65;;;3.50;99.90;;;;;;5081416;28;20229;-80
2021/01/27 09:10:56;;;;;;;5.30;3.28;;;3.40;99.90;;;;;;5078714;28;20209;-87
2021/01/27 09:13:27;;;;;;;7.45;3.88;;;3.50;99.90;;;;;;5077619;28;20911;-82
2021/01/27 09:15:55;;;;;;;8.05;4.00;;;3.40;99.90;;;;;;5077480;28;20232;-82
2021/01/27 09:18:22;;;;;;;7.60;3.78;;;3.60;99.90;;;;;;5077872;28;20225;-81
2021/01/27 09:20:50;;;;;;;5.97;3.45;;;3.40;99.90;;;;;;5078870;28;20243;-80
2021/01/27 09:23:19;;;;;;;6.57;3.40;;;3.30;99.90;;;;;;5079310;28;20208;-80
2021/01/27 09:25:47;;;;;;;9.23;5.20;;;3.40;99.90;;;;;;5078620;28;20202;-80
2021/01/27 09:28:19;;;;;;;12.20;4.70;;;3.30;99.90;;;;;;5071765;28;20217;-80
2021/01/27 09:30:46;;;;;;;7.55;4.00;;;3.20;99.90;;;;;;5080128;28;20198;-81
2021/01/27 09:33:14;;;;;;;5.82;3.72;;;3.40;99.90;;;;;;5081647;28;20208;-80
2021/01/27 09:35:42;;;;;;;5.60;4.00;;;3.50;99.90;;;;;;5084416;28;20222;-81
2021/01/27 09:38:13;;;;;;;6.43;4.57;;;3.40;99.90;;;;;;5086050;28;20226;-83
2021/01/27 09:40:43;;;;;;;7.57;4.40;;;3.50;99.90;;;;;;5082526;28;20201;-81
2021/01/27 09:43:12;;;;;;;9.23;4.20;;;3.20;99.90;;;;;;5089972;28;20207;-79
2021/01/27 09:45:42;;;;;;;7.55;4.15;;;3.30;99.90;;;;;;5093188;28;20186;-83
2021/01/27 09:48:11;;;;;;;7.13;3.45;;;3.10;99.90;;;;;;5091565;28;20222;-80
2021/01/27 09:50:39;;;;;;;7.22;4.30;;;3.20;99.90;;;;;;5089006;28;20198;-81
2021/01/27 09:53:07;;;;;;;5.88;3.53;;;3.40;99.90;;;;;;5085910;28;20205;-81
2021/01/27 09:55:35;;;;;;;10.13;5.00;;;3.00;99.90;;;;;;5079180;28;20225;-81
2021/01/27 09:58:05;;;;;;;5.50;3.70;;;3.20;99.90;;;;;;5083395;28;20249;-80
2021/01/27 10:00:34;;;;;;;7.82;4.22;;;3.10;99.90;;;;;;5088558;28;20233;-77
2021/01/27 10:03:23;;;;;;;7.57;3.85;;;3.10;99.90;;;;;;5082838;28;20233;-78
2021/01/27 10:05:50;;;;;;;5.60;3.67;;;3.00;99.90;;;;;;5085280;28;20370;-79
2021/01/27 10:08:21;;;;;;;7.35;4.05;;;3.10;99.90;;;;;;5087359;28;20240;-80
2021/01/27 10:11:04;;;;;;;7.05;3.97;;;3.20;99.90;;;;;;5087096;28;20205;-84
2021/01/27 10:13:32;;;;;;;9.93;3.85;;;3.10;99.90;;;;;;5077578;28;20213;-83
2021/01/27 10:16:04;;;;;;;13.35;5.88;;;3.00;99.90;;;;;;5077789;28;20225;-81
2021/01/27 10:18:32;;;;;;;7.65;3.13;;;3.30;99.90;;;;;;5078958;28;20310;-80
2021/01/27 10:21:03;;;;;;;8.45;3.15;;;3.20;99.90;;;;;;5079250;28;20596;-83
2021/01/27 10:23:39;;;;;;;4.90;2.92;;;3.40;99.90;;;;;;5083543;28;20818;-83
2021/01/27 10:26:23;;;;;;;5.05;3.10;;;3.40;99.90;;;;;;5086473;28;20209;-81
2021/01/27 10:29:18;;;;;;;4.45;2.72;;;3.50;99.90;;;;;;5086617;28;20217;-80
2021/01/27 10:31:48;;;;;;;5.55;2.83;;;3.40;99.90;;;;;;5090130;28;20216;-81
2021/01/27 10:34:36;;;;;;;8.77;3.75;;;3.40;99.90;;;;;;5087591;28;20210;-82
2021/01/27 10:37:03;;;;;;;4.53;2.63;;;3.60;99.90;;;;;;5081097;28;20222;-84
2021/01/27 10:39:31;;;;;;;4.60;2.88;;;3.70;99.90;;;;;;5078852;28;20268;-77
2021/01/27 10:42:23;;;;;;;6.60;4.32;;;3.70;99.90;;;;;;5066686;28;20214;-80
2021/01/27 10:45:17;;;;;;;10.85;4.38;;;3.80;99.90;;;;;;5065946;28;20199;-80
2021/01/27 10:47:52;;;;;;;6.95;2.80;;;3.70;99.90;;;;;;5080743;28;20197;-82
2021/01/27 10:50:19;;;;;;;6.63;3.17;;;3.60;99.90;;;;;;5080807;28;20190;-82
2021/01/27 10:52:45;;;;;;;6.50;3.03;;;3.60;99.90;;;;;;5081586;28;20202;-83
2021/01/27 10:55:13;;;;;;;6.53;2.95;;;3.60;99.90;;;;;;5080917;28;20217;-80
2021/01/27 10:57:41;;;;;;;5.70;3.05;;;3.80;99.90;;;;;;5076933;28;20205;-82
2021/01/27 11:00:10;;;;;;;5.00;2.72;;;3.80;99.90;;;;;;5071557;28;20197;-79
2021/01/27 11:02:37;;;;;;;6.18;4.22;;;3.60;99.90;;;;;;5067379;28;20215;-82
2021/01/27 11:05:04;;;;;;;6.85;2.75;;;3.70;99.90;;;;;;5064851;28;20206;-82
2021/01/27 11:07:31;;;;;;;8.10;3.42;;;3.70;99.90;;;;;;5069558;28;20273;-81
2021/01/27 11:09:58;;;;;;;8.45;3.10;;;3.70;99.90;;;;;;5073369;28;20257;-81
2021/01/27 11:12:25;;;;;;;7.05;3.65;;;3.90;99.90;;;;;;5074956;28;20576;-80
2021/01/27 11:14:52;;;;;;;5.68;3.08;;;3.90;99.90;;;;;;5069628;28;20214;-81
2021/01/27 11:17:19;;;;;;;5.20;2.92;;;3.70;99.90;;;;;;5077010;28;20293;-82
2021/01/27 11:19:45;;;;;;;7.25;4.10;;;3.60;99.90;;;;;;5066243;28;20233;-83
2021/01/27 11:22:12;;;;;;;5.43;2.88;;;3.80;99.90;;;;;;5081055;28;20569;-83
2021/01/27 11:24:38;;;;;;;4.65;2.70;;;3.80;99.90;;;;;;5080338;28;20255;-83
2021/01/27 11:27:05;;;;;;;8.63;3.30;;;3.70;99.90;;;;;;5078669;28;20198;-81
2021/01/27 11:29:32;;;;;;;5.82;2.60;;;3.90;99.90;;;;;;5081874;28;20233;-83
2021/01/27 11:31:59;;;;;;;6.00;3.67;;;3.80;99.90;;;;;;5074566;28;20208;-82
2021/01/27 11:34:25;;;;;;;7.88;3.22;;;3.70;99.90;;;;;;5079470;28;20218;-82
2021/01/27 11:36:52;;;;;;;6.82;2.78;;;3.90;99.90;;;;;;5070560;28;20198;-82
2021/01/27 11:39:19;;;;;;;4.45;2.50;;;3.80;99.90;;;;;;5079644;28;20214;-82
2021/01/27 11:41:46;;;;;;;5.68;3.00;;;3.90;99.90;;;;;;5073872;28;20206;-81
2021/01/27 11:44:12;;;;;;;6.35;2.72;;;3.90;99.90;;;;;;5080366;28;20213;-82
2021/01/27 11:46:39;;;;;;;5.20;2.50;;;4.00;99.90;;;;;;5069638;28;20195;-82
2021/01/27 11:49:07;;;;;;;10.82;3.00;;;4.10;99.90;;;;;;5059577;28;20231;-80
2021/01/27 11:51:34;;;;;;;6.15;2.75;;;4.00;99.90;;;;;;5064795;28;20226;-84
2021/01/27 11:54:00;;;;;;;3.63;2.08;;;4.20;99.90;;;;;;5076233;28;20211;-81
2021/01/27 11:56:27;;;;;;;3.88;2.17;;;4.00;99.90;;;;;;5082405;28;20233;-81
2021/01/27 11:58:53;;;;;;;4.38;1.45;;;4.00;99.90;;;;;;5087390;28;20634;-83
2021/01/27 12:01:20;;;;;;;4.65;2.20;;;4.00;99.90;;;;;;5083635;28;20206;-80
2021/01/27 12:03:47;;;;;;;6.07;2.20;;;4.30;99.90;;;;;;5079598;28;20202;-83
2021/01/27 12:06:14;;;;;;;6.47;2.53;;;4.00;99.90;;;;;;5078558;28;20206;-81
2021/01/27 12:08:41;;;;;;;4.50;2.03;;;4.30;99.90;;;;;;5078591;28;20775;-82
2021/01/27 12:11:07;;;;;;;4.50;2.00;;;4.00;99.90;;;;;;5084332;28;20209;-81
2021/01/27 12:13:34;;;;;;;3.88;1.70;;;3.80;99.90;;;;;;5082659;28;20217;-81
2021/01/27 12:16:01;;;;;;;4.82;2.80;;;4.00;99.90;;;;;;5082438;28;20282;-82
2021/01/27 12:18:27;;;;;;;4.90;2.20;;;3.90;99.90;;;;;;5084800;28;20812;-82
2021/01/27 12:20:54;;;;;;;5.47;2.50;;;4.00;99.90;;;;;;5084442;28;20690;-79
2021/01/27 12:23:21;;;;;;;4.43;2.05;;;4.00;99.90;;;;;;5079478;28;20270;-81
2021/01/27 12:25:48;;;;;;;5.25;2.78;;;4.00;99.90;;;;;;5084003;28;20224;-81
2021/01/27 12:28:15;;;;;;;6.53;2.28;;;4.20;99.90;;;;;;5086373;28;20225;-79
2021/01/27 12:30:41;;;;;;;5.10;2.60;;;4.10;99.90;;;;;;5087596;28;20210;-79
2021/01/27 12:33:09;;;;;;;4.85;2.35;;;4.10;99.90;;;;;;5087159;28;20775;-79
2021/01/27 12:35:36;;;;;;;6.43;3.33;;;4.20;99.90;;;;;;5087529;28;20236;-82
2021/01/27 12:38:03;;;;;;;5.60;2.40;;;4.40;99.90;;;;;;5075935;28;20222;-83
2021/01/27 12:40:31;;;;;;;5.65;1.92;;;4.50;99.90;;;;;;5079894;28;20201;-83
2021/01/27 12:42:58;;;;;;;5.10;2.10;;;4.30;99.90;;;;;;5083978;28;20195;-81
2021/01/27 12:45:27;;;;;;;3.80;2.33;;;4.40;99.90;;;;;;5062127;28;20202;-80
2021/01/27 12:47:54;;;;;;;3.95;2.20;;;4.60;99.90;;;;;;5068585;28;20723;-82
2021/01/27 12:50:20;;;;;;;4.43;2.22;;;4.50;99.90;;;;;;5077973;28;20202;-80
2021/01/27 12:52:47;;;;;;;3.95;2.30;;;4.30;99.90;;;;;;5078241;28;20208;-83
2021/01/27 12:55:16;;;;;;;3.45;1.77;;;4.30;99.90;;;;;;5079156;28;20213;-83
2021/01/27 12:57:44;;;;;;;4.72;2.42;;;4.20;99.90;;;;;;5078851;28;20221;-81
2021/01/27 13:00:15;;;;;;;4.68;2.70;;;4.30;99.90;;;;;;5078809;28;20205;-83
2021/01/27 13:02:42;;;;;;;9.13;2.22;;;4.40;99.90;;;;;;5077977;28;20202;-83
2021/01/27 13:05:10;;;;;;;7.65;2.15;;;4.40;99.90;;;;;;5079286;28;20258;-81
2021/01/27 13:07:36;;;;;;;6.30;2.20;;;4.30;99.90;;;;;;5069496;28;20284;-83
2021/01/27 13:10:04;;;;;;;3.47;1.85;;;4.20;99.90;;;;;;5076488;28;20206;-81
2021/01/27 13:12:31;;;;;;;4.82;2.17;;;4.30;99.90;;;;;;5077629;28;20234;-80
2021/01/27 13:14:58;;;;;;;12.23;2.95;;;4.30;99.90;;;;;;5080803;28;20670;-80
2021/01/27 13:17:25;;;;;;;6.82;2.63;;;4.10;99.90;;;;;;5080789;28;20214;-82
2021/01/27 13:19:52;;;;;;;7.57;2.42;;;4.10;99.90;;;;;;5074988;28;20581;-82
2021/01/27 13:22:18;;;;;;;5.35;2.90;;;4.20;99.90;;;;;;5075709;28;20388;-82
2021/01/27 13:24:45;;;;;;;3.92;2.47;;;4.20;99.90;;;;;;5077453;28;20202;-82
2021/01/27 13:27:12;;;;;;;5.13;2.33;;;4.20;99.90;;;;;;5075624;28;20569;-82